sensor_id;sensor_type;location;lat;lon;timestamp;pressure;altitude;pressure_sealevel;temperature;humidity
13767;BME280;47980;48.794;9.176;2023-04-01T00:00:41;96909.94;;;9.64;88.91
13767;BME280;47980;48.794;9.176;2023-04-01T00:03:13;96908.47;;;9.67;87.81
13767;BME280;47980;48.794;9.176;2023-04-01T00:05:44;96905.91;;;9.71;87.58
13767;BME280;47980;48.794;9.176;2023-04-01T00:08:16;96907.16;;;9.77;88.65
13767;BME280;47980;48.794;9.176;2023-04-01T00:10:48;96905.34;;;9.81;87.77
13767;BME280;47980;48.794;9.176;2023-04-01T00:13:20;96909.53;;;9.82;87.06
13767;BME280;47980;48.794;9.176;2023-04-01T00:15:54;96904.56;;;10.00;87.00
13767;BME280;47980;48.794;9.176;2023-04-01T00:18:26;96914.81;;;10.01;85.79
13767;BME280;47980;48.794;9.176;2023-04-01T00:20:57;96910.13;;;9.95;87.46
13767;BME280;47980;48.794;9.176;2023-04-01T00:23:29;96903.94;;;9.87;87.70
13767;BME280;47980;48.794;9.176;2023-04-01T00:26:01;96901.28;;;9.87;87.66
13767;BME280;47980;48.794;9.176;2023-04-01T00:28:34;96903.81;;;9.99;86.66
13767;BME280;47980;48.794;9.176;2023-04-01T00:31:08;96904.38;;;9.89;87.63
13767;BME280;47980;48.794;9.176;2023-04-01T00:33:40;96909.16;;;9.83;87.60
13767;BME280;47980;48.794;9.176;2023-04-01T00:36:15;96914.06;;;9.81;87.58
13767;BME280;47980;48.794;9.176;2023-04-01T00:38:47;96908.13;;;9.88;88.33
13767;BME280;47980;48.794;9.176;2023-04-01T00:41:19;96915.59;;;9.82;88.35
13767;BME280;47980;48.794;9.176;2023-04-01T00:43:51;96917.47;;;9.82;87.81
13767;BME280;47980;48.794;9.176;2023-04-01T00:46:24;96917.41;;;9.78;88.91
13767;BME280;47980;48.794;9.176;2023-04-01T00:48:56;96915.72;;;9.89;87.91
13767;BME280;47980;48.794;9.176;2023-04-01T00:51:28;96919.28;;;9.97;88.08
13767;BME280;47980;48.794;9.176;2023-04-01T00:54:01;96917.06;;;9.99;88.24
13767;BME280;47980;48.794;9.176;2023-04-01T00:56:35;96929.09;;;9.97;88.17
13767;BME280;47980;48.794;9.176;2023-04-01T00:59:11;96913.22;;;9.97;88.48
13767;BME280;47980;48.794;9.176;2023-04-01T01:01:46;96925.25;;;9.94;88.59
13767;BME280;47980;48.794;9.176;2023-04-01T01:04:23;96911.25;;;9.94;88.01
13767;BME280;47980;48.794;9.176;2023-04-01T01:07:03;96924.31;;;10.02;89.24
13767;BME280;47980;48.794;9.176;2023-04-01T01:09:44;96923.31;;;9.91;90.54
13767;BME280;47980;48.794;9.176;2023-04-01T01:12:19;96921.44;;;9.92;91.38
13767;BME280;47980;48.794;9.176;2023-04-01T01:14:55;96916.91;;;9.92;90.99
13767;BME280;47980;48.794;9.176;2023-04-01T01:17:39;96915.44;;;9.95;91.78
13767;BME280;47980;48.794;9.176;2023-04-01T01:23:36;96907.50;;;9.95;92.26
13767;BME280;47980;48.794;9.176;2023-04-01T01:26:31;96912.03;;;9.94;93.04
13767;BME280;47980;48.794;9.176;2023-04-01T01:29:12;96921.22;;;10.00;92.30
13767;BME280;47980;48.794;9.176;2023-04-01T01:31:51;96912.59;;;10.03;91.88
13767;BME280;47980;48.794;9.176;2023-04-01T01:34:33;96914.47;;;10.03;91.76
13767;BME280;47980;48.794;9.176;2023-04-01T01:37:11;96908.34;;;9.99;91.84
13767;BME280;47980;48.794;9.176;2023-04-01T01:39:54;96918.88;;;9.95;91.61
13767;BME280;47980;48.794;9.176;2023-04-01T01:42:28;96916.63;;;9.97;92.65
13767;BME280;47980;48.794;9.176;2023-04-01T01:45:04;96909.81;;;9.96;92.22
13767;BME280;47980;48.794;9.176;2023-04-01T01:47:37;96913.97;;;9.97;93.80
13767;BME280;47980;48.794;9.176;2023-04-01T01:50:10;96927.16;;;9.94;94.64
13767;BME280;47980;48.794;9.176;2023-04-01T01:52:44;96913.34;;;10.04;92.87
13767;BME280;47980;48.794;9.176;2023-04-01T01:55:29;96911.41;;;10.01;92.87
13767;BME280;47980;48.794;9.176;2023-04-01T01:58:05;96917.69;;;9.93;95.92
13767;BME280;47980;48.794;9.176;2023-04-01T02:00:39;96907.94;;;9.77;95.06
13767;BME280;47980;48.794;9.176;2023-04-01T02:03:14;96905.34;;;9.81;95.85
13767;BME280;47980;48.794;9.176;2023-04-01T02:05:47;96898.16;;;9.81;95.42
13767;BME280;47980;48.794;9.176;2023-04-01T02:08:22;96902.19;;;9.75;96.22
13767;BME280;47980;48.794;9.176;2023-04-01T02:10:59;96900.06;;;9.81;94.23
13767;BME280;47980;48.794;9.176;2023-04-01T02:13:35;96899.28;;;9.80;94.02
13767;BME280;47980;48.794;9.176;2023-04-01T02:16:13;96899.28;;;9.80;94.86
13767;BME280;47980;48.794;9.176;2023-04-01T02:18:47;96909.53;;;9.82;95.29
13767;BME280;47980;48.794;9.176;2023-04-01T02:21:24;96921.78;;;9.90;93.65
13767;BME280;47980;48.794;9.176;2023-04-01T02:24:00;96920.13;;;9.82;93.62
13767;BME280;47980;48.794;9.176;2023-04-01T02:26:34;96925.63;;;9.93;93.40
13767;BME280;47980;48.794;9.176;2023-04-01T02:29:06;96914.59;;;9.91;93.24
13767;BME280;47980;48.794;9.176;2023-04-01T02:31:40;96923.88;;;9.81;94.09
13767;BME280;47980;48.794;9.176;2023-04-01T02:34:13;96917.63;;;9.70;95.56
13767;BME280;47980;48.794;9.176;2023-04-01T02:36:45;96911.97;;;9.71;94.50
13767;BME280;47980;48.794;9.176;2023-04-01T02:39:20;96908.19;;;9.72;94.96
13767;BME280;47980;48.794;9.176;2023-04-01T02:41:52;96909.59;;;9.66;95.28
13767;BME280;47980;48.794;9.176;2023-04-01T02:44:23;96910.53;;;9.58;94.07
13767;BME280;47980;48.794;9.176;2023-04-01T02:46:55;96908.31;;;9.40;95.37
13767;BME280;47980;48.794;9.176;2023-04-01T02:49:26;96904.03;;;9.36;95.59
13767;BME280;47980;48.794;9.176;2023-04-01T02:51:58;96907.19;;;9.42;94.29
13767;BME280;47980;48.794;9.176;2023-04-01T02:54:31;96916.41;;;9.48;92.08
13767;BME280;47980;48.794;9.176;2023-04-01T02:57:02;96905.31;;;9.42;91.96
13767;BME280;47980;48.794;9.176;2023-04-01T02:59:34;96910.75;;;9.49;90.71
13767;BME280;47980;48.794;9.176;2023-04-01T03:02:05;96904.09;;;9.55;92.37
13767;BME280;47980;48.794;9.176;2023-04-01T03:04:37;96908.66;;;9.39;91.39
13767;BME280;47980;48.794;9.176;2023-04-01T03:07:09;96911.81;;;9.45;91.37
13767;BME280;47980;48.794;9.176;2023-04-01T03:09:42;96909.53;;;9.62;91.36
13767;BME280;47980;48.794;9.176;2023-04-01T03:12:14;96913.19;;;9.58;91.45
13767;BME280;47980;48.794;9.176;2023-04-01T03:14:45;96907.41;;;9.52;90.16
13767;BME280;47980;48.794;9.176;2023-04-01T03:17:17;96912.72;;;9.52;91.42
13767;BME280;47980;48.794;9.176;2023-04-01T03:19:48;96912.56;;;9.45;91.44
13767;BME280;47980;48.794;9.176;2023-04-01T03:22:20;96908.84;;;9.30;91.27
13767;BME280;47980;48.794;9.176;2023-04-01T03:24:53;96910.72;;;9.30;92.68
13767;BME280;47980;48.794;9.176;2023-04-01T03:27:24;96903.56;;;9.30;91.09
13767;BME280;47980;48.794;9.176;2023-04-01T03:29:55;96910.13;;;9.21;90.70
13767;BME280;47980;48.794;9.176;2023-04-01T03:32:27;96912.47;;;9.06;92.18
13767;BME280;47980;48.794;9.176;2023-04-01T03:34:59;96910.06;;;9.17;93.08
13767;BME280;47980;48.794;9.176;2023-04-01T03:37:30;96918.91;;;9.25;92.54
13767;BME280;47980;48.794;9.176;2023-04-01T03:40:04;96920.44;;;9.26;91.28
13767;BME280;47980;48.794;9.176;2023-04-01T03:42:36;96914.13;;;9.30;92.30
13767;BME280;47980;48.794;9.176;2023-04-01T03:45:08;96910.59;;;9.42;91.64
13767;BME280;47980;48.794;9.176;2023-04-01T03:47:40;96906.06;;;9.43;90.16
13767;BME280;47980;48.794;9.176;2023-04-01T03:50:11;96908.66;;;9.39;90.69
13767;BME280;47980;48.794;9.176;2023-04-01T03:52:43;96904.41;;;9.34;89.83
13767;BME280;47980;48.794;9.176;2023-04-01T03:55:16;96905.59;;;9.37;89.70
13767;BME280;47980;48.794;9.176;2023-04-01T03:57:48;96907.34;;;9.13;88.13
13767;BME280;47980;48.794;9.176;2023-04-01T04:00:20;96903.66;;;9.18;89.00
13767;BME280;47980;48.794;9.176;2023-04-01T04:02:51;96900.53;;;9.12;87.62
13767;BME280;47980;48.794;9.176;2023-04-01T04:05:23;96894.78;;;9.10;88.65
13767;BME280;47980;48.794;9.176;2023-04-01T04:07:55;96896.34;;;9.11;89.34
13767;BME280;47980;48.794;9.176;2023-04-01T04:10:28;96891.25;;;9.22;87.37
13767;BME280;47980;48.794;9.176;2023-04-01T04:12:59;96884.97;;;9.27;87.53
13767;BME280;47980;48.794;9.176;2023-04-01T04:15:31;96891.34;;;9.26;86.94
13767;BME280;47980;48.794;9.176;2023-04-01T04:18:03;96892.28;;;9.33;86.48
13767;BME280;47980;48.794;9.176;2023-04-01T04:20:34;96890.84;;;9.20;86.58
13767;BME280;47980;48.794;9.176;2023-04-01T04:23:06;96887.78;;;9.18;86.59
13767;BME280;47980;48.794;9.176;2023-04-01T04:25:38;96889.41;;;9.23;87.38
13767;BME280;47980;48.794;9.176;2023-04-01T04:28:10;96888.34;;;9.08;88.44
13767;BME280;47980;48.794;9.176;2023-04-01T04:30:41;96888.66;;;9.06;86.88
13767;BME280;47980;48.794;9.176;2023-04-01T04:33:13;96890.63;;;9.09;87.55
13767;BME280;47980;48.794;9.176;2023-04-01T04:35:45;96885.00;;;8.95;88.10
13767;BME280;47980;48.794;9.176;2023-04-01T04:38:17;96886.38;;;8.89;88.27
13767;BME280;47980;48.794;9.176;2023-04-01T04:40:50;96894.75;;;8.91;88.65
13767;BME280;47980;48.794;9.176;2023-04-01T04:43:21;96885.28;;;8.90;89.06
13767;BME280;47980;48.794;9.176;2023-04-01T04:45:53;96886.38;;;8.89;89.48
13767;BME280;47980;48.794;9.176;2023-04-01T04:48:24;96894.31;;;8.89;89.64
13767;BME280;47980;48.794;9.176;2023-04-01T04:50:56;96888.16;;;8.85;89.20
13767;BME280;47980;48.794;9.176;2023-04-01T04:53:27;96891.69;;;8.73;89.40
13767;BME280;47980;48.794;9.176;2023-04-01T04:56:00;96882.47;;;8.83;89.88
13767;BME280;47980;48.794;9.176;2023-04-01T04:58:32;96883.56;;;8.82;89.37
13767;BME280;47980;48.794;9.176;2023-04-01T05:01:06;96880.25;;;8.85;89.67
13767;BME280;47980;48.794;9.176;2023-04-01T05:03:38;96884.75;;;8.84;90.96
13767;BME280;47980;48.794;9.176;2023-04-01T05:06:11;96877.78;;;8.76;90.58
13767;BME280;47980;48.794;9.176;2023-04-01T05:08:44;96874.47;;;8.79;89.81
13767;BME280;47980;48.794;9.176;2023-04-01T05:11:18;96872.59;;;8.80;91.41
13767;BME280;47980;48.794;9.176;2023-04-01T05:13:50;96878.19;;;8.78;90.69
13767;BME280;47980;48.794;9.176;2023-04-01T05:16:22;96879.41;;;8.81;92.09
13767;BME280;47980;48.794;9.176;2023-04-01T05:18:53;96875.22;;;8.80;91.52
13767;BME280;47980;48.794;9.176;2023-04-01T05:21:25;96871.91;;;8.83;92.16
13767;BME280;47980;48.794;9.176;2023-04-01T05:23:56;96866.78;;;8.90;91.70
13767;BME280;47980;48.794;9.176;2023-04-01T05:26:29;96863.34;;;8.89;91.38
13767;BME280;47980;48.794;9.176;2023-04-01T05:29:01;96860.38;;;8.91;91.19
13767;BME280;47980;48.794;9.176;2023-04-01T05:31:32;96864.44;;;9.04;89.89
13767;BME280;47980;48.794;9.176;2023-04-01T05:34:04;96854.34;;;9.10;89.61
13767;BME280;47980;48.794;9.176;2023-04-01T05:36:35;96856.94;;;9.26;90.08
13767;BME280;47980;48.794;9.176;2023-04-01T05:39:07;96855.41;;;9.25;88.32
13767;BME280;47980;48.794;9.176;2023-04-01T05:41:41;96867.78;;;9.56;87.37
13767;BME280;47980;48.794;9.176;2023-04-01T05:44:13;96867.31;;;9.70;86.96
13767;BME280;47980;48.794;9.176;2023-04-01T05:46:44;96859.06;;;9.75;85.99
13767;BME280;47980;48.794;9.176;2023-04-01T05:49:16;96857.41;;;9.67;85.69
13767;BME280;47980;48.794;9.176;2023-04-01T05:51:48;96853.78;;;9.75;84.77
13767;BME280;47980;48.794;9.176;2023-04-01T05:54:19;96850.28;;;9.71;84.52
13767;BME280;47980;48.794;9.176;2023-04-01T05:56:52;96850.91;;;9.83;83.00
13767;BME280;47980;48.794;9.176;2023-04-01T05:59:24;96845.88;;;9.98;82.97
13767;BME280;47980;48.794;9.176;2023-04-01T06:01:55;96850.91;;;10.03;83.47
13767;BME280;47980;48.794;9.176;2023-04-01T06:04:28;96850.66;;;10.11;80.41
13767;BME280;47980;48.794;9.176;2023-04-01T06:07:09;96845.34;;;10.11;78.70
13767;BME280;47980;48.794;9.176;2023-04-01T06:09:42;96840.34;;;10.06;79.74
13767;BME280;47980;48.794;9.176;2023-04-01T06:12:29;96820.63;;;10.04;78.92
13767;BME280;47980;48.794;9.176;2023-04-01T06:15:13;96826.81;;;10.11;78.58
13767;BME280;47980;48.794;9.176;2023-04-01T06:18:01;96829.25;;;10.43;78.31
13767;BME280;47980;48.794;9.176;2023-04-01T06:20:41;96822.50;;;10.46;77.37
13767;BME280;47980;48.794;9.176;2023-04-01T06:23:24;96831.78;;;10.59;76.29
13767;BME280;47980;48.794;9.176;2023-04-01T06:26:16;96833.38;;;10.41;76.97
13767;BME280;47980;48.794;9.176;2023-04-01T06:32:16;96842.34;;;10.82;73.86
13767;BME280;47980;48.794;9.176;2023-04-01T06:35:06;96829.34;;;10.73;74.77
13767;BME280;47980;48.794;9.176;2023-04-01T06:37:52;96835.81;;;10.76;73.79
13767;BME280;47980;48.794;9.176;2023-04-01T06:40:44;96853.00;;;10.59;75.93
13767;BME280;47980;48.794;9.176;2023-04-01T06:43:22;96846.50;;;10.56;76.60
13767;BME280;47980;48.794;9.176;2023-04-01T06:46:02;96841.31;;;10.64;75.40
13767;BME280;47980;48.794;9.176;2023-04-01T06:48:53;96843.41;;;10.51;76.67
13767;BME280;47980;48.794;9.176;2023-04-01T06:51:36;96845.72;;;10.56;76.54
13767;BME280;47980;48.794;9.176;2023-04-01T06:54:12;96835.81;;;10.76;74.72
13767;BME280;47980;48.794;9.176;2023-04-01T06:56:53;96834.47;;;10.89;74.91
13767;BME280;47980;48.794;9.176;2023-04-01T06:59:30;96828.25;;;10.78;76.16
13767;BME280;47980;48.794;9.176;2023-04-01T07:02:16;96845.03;;;10.85;74.97
13767;BME280;47980;48.794;9.176;2023-04-01T07:04:53;96848.31;;;11.02;73.69
13767;BME280;47980;48.794;9.176;2023-04-01T07:07:31;96850.84;;;11.21;75.07
13767;BME280;47980;48.794;9.176;2023-04-01T07:10:10;96846.47;;;11.06;74.38
13767;BME280;47980;48.794;9.176;2023-04-01T07:12:46;96838.41;;;10.99;75.60
13767;BME280;47980;48.794;9.176;2023-04-01T07:15:23;96839.88;;;10.96;75.56
13767;BME280;47980;48.794;9.176;2023-04-01T07:18:02;96850.44;;;10.93;74.26
13767;BME280;47980;48.794;9.176;2023-04-01T07:20:36;96850.59;;;11.03;74.54
13767;BME280;47980;48.794;9.176;2023-04-01T07:23:16;96851.63;;;10.95;74.69
13767;BME280;47980;48.794;9.176;2023-04-01T07:25:52;96855.03;;;10.96;75.66
13767;BME280;47980;48.794;9.176;2023-04-01T07:28:30;96861.53;;;10.98;76.61
13767;BME280;47980;48.794;9.176;2023-04-01T07:31:10;96860.16;;;10.81;76.89
13767;BME280;47980;48.794;9.176;2023-04-01T07:33:53;96868.38;;;10.99;76.05
13767;BME280;47980;48.794;9.176;2023-04-01T07:36:33;96862.09;;;10.84;77.13
13767;BME280;47980;48.794;9.176;2023-04-01T07:39:18;96869.00;;;10.66;76.48
13767;BME280;47980;48.794;9.176;2023-04-01T07:41:59;96868.88;;;10.82;76.90
13767;BME280;47980;48.794;9.176;2023-04-01T07:44:39;96870.16;;;10.92;77.57
13767;BME280;47980;48.794;9.176;2023-04-01T07:47:25;96869.00;;;11.16;75.25
13767;BME280;47980;48.794;9.176;2023-04-01T07:50:12;96863.50;;;11.31;75.32
13767;BME280;47980;48.794;9.176;2023-04-01T07:52:55;96866.34;;;11.16;74.58
13767;BME280;47980;48.794;9.176;2023-04-01T07:55:32;96862.69;;;11.27;75.24
13767;BME280;47980;48.794;9.176;2023-04-01T07:58:12;96863.81;;;11.26;75.15
13767;BME280;47980;48.794;9.176;2023-04-01T08:00:52;96864.84;;;11.18;73.81
13767;BME280;47980;48.794;9.176;2023-04-01T08:03:35;96862.66;;;11.24;75.47
13767;BME280;47980;48.794;9.176;2023-04-01T08:06:14;96879.81;;;11.30;76.11
13767;BME280;47980;48.794;9.176;2023-04-01T08:08:59;96862.69;;;11.27;75.37
13767;BME280;47980;48.794;9.176;2023-04-01T08:11:43;96867.44;;;11.41;74.21
13767;BME280;47980;48.794;9.176;2023-04-01T08:14:22;96864.63;;;11.61;74.30
13767;BME280;47980;48.794;9.176;2023-04-01T08:17:03;96858.88;;;11.55;73.70
13767;BME280;47980;48.794;9.176;2023-04-01T08:19:47;96856.22;;;11.55;73.46
13767;BME280;47980;48.794;9.176;2023-04-01T08:22:27;96870.22;;;11.52;76.25
13767;BME280;47980;48.794;9.176;2023-04-01T08:25:02;96870.25;;;11.55;74.07
13767;BME280;47980;48.794;9.176;2023-04-01T08:27:39;96872.38;;;11.73;73.72
13767;BME280;47980;48.794;9.176;2023-04-01T08:30:18;96880.78;;;11.78;74.12
13767;BME280;47980;48.794;9.176;2023-04-01T08:32:53;96873.63;;;11.52;75.99
13767;BME280;47980;48.794;9.176;2023-04-01T08:35:30;96875.16;;;11.53;75.07
13767;BME280;47980;48.794;9.176;2023-04-01T08:38:11;96873.31;;;11.27;76.69
13767;BME280;47980;48.794;9.176;2023-04-01T08:40:55;96886.50;;;11.20;78.55
13767;BME280;47980;48.794;9.176;2023-04-01T08:43:47;96893.38;;;11.25;79.27
13767;BME280;47980;48.794;9.176;2023-04-01T08:46:34;96894.56;;;11.01;82.31
13767;BME280;47980;48.794;9.176;2023-04-01T08:49:23;96884.19;;;10.92;82.06
13767;BME280;47980;48.794;9.176;2023-04-01T08:52:25;96893.47;;;10.79;83.93
13767;BME280;47980;48.794;9.176;2023-04-01T08:55:27;96882.84;;;10.56;85.76
13767;BME280;47980;48.794;9.176;2023-04-01T08:58:17;96874.69;;;10.65;86.13
13767;BME280;47980;48.794;9.176;2023-04-01T09:00:57;96878.75;;;10.58;87.36
13767;BME280;47980;48.794;9.176;2023-04-01T09:03:41;96883.56;;;10.76;87.92
13767;BME280;47980;48.794;9.176;2023-04-01T09:06:28;96878.81;;;10.89;85.21
13767;BME280;47980;48.794;9.176;2023-04-01T09:09:18;96878.94;;;10.96;84.98
13767;BME280;47980;48.794;9.176;2023-04-01T09:12:18;96877.81;;;10.97;85.66
13767;BME280;47980;48.794;9.176;2023-04-01T09:15:16;96877.50;;;11.28;82.75
13767;BME280;47980;48.794;9.176;2023-04-01T09:18:24;96875.50;;;11.22;82.76
13767;BME280;47980;48.794;9.176;2023-04-01T09:21:18;96873.78;;;11.06;82.29
13767;BME280;47980;48.794;9.176;2023-04-01T09:24:25;96883.25;;;11.04;82.13
13767;BME280;47980;48.794;9.176;2023-04-01T09:27:03;96876.34;;;11.26;80.69
13767;BME280;47980;48.794;9.176;2023-04-01T09:30:10;96880.00;;;11.78;80.50
13767;BME280;47980;48.794;9.176;2023-04-01T09:33:16;96884.94;;;12.10;77.51
13767;BME280;47980;48.794;9.176;2023-04-01T09:36:03;96885.72;;;11.80;77.66
13767;BME280;47980;48.794;9.176;2023-04-01T09:38:48;96894.00;;;12.05;79.06
13767;BME280;47980;48.794;9.176;2023-04-01T09:41:29;96896.56;;;12.32;76.76
13767;BME280;47980;48.794;9.176;2023-04-01T09:44:02;96899.13;;;11.87;76.30
13767;BME280;47980;48.794;9.176;2023-04-01T09:46:49;96891.66;;;11.40;78.14
13767;BME280;47980;48.794;9.176;2023-04-01T09:49:50;96906.81;;;11.66;78.65
13767;BME280;47980;48.794;9.176;2023-04-01T09:52:32;96899.91;;;11.61;76.71
13767;BME280;47980;48.794;9.176;2023-04-01T09:55:20;96898.81;;;11.36;78.72
13767;BME280;47980;48.794;9.176;2023-04-01T09:58:21;96888.91;;;11.32;79.22
13767;BME280;47980;48.794;9.176;2023-04-01T10:01:32;96903.25;;;11.54;76.98
13767;BME280;47980;48.794;9.176;2023-04-01T10:08:09;96908.88;;;11.79;76.40
13767;BME280;47980;48.794;9.176;2023-04-01T10:11:22;96916.28;;;11.93;74.69
13767;BME280;47980;48.794;9.176;2023-04-01T10:14:37;96920.16;;;11.69;73.38
13767;BME280;47980;48.794;9.176;2023-04-01T10:17:31;96900.16;;;11.49;72.42
13767;BME280;47980;48.794;9.176;2023-04-01T10:20:30;96909.47;;;11.66;71.59
13767;BME280;47980;48.794;9.176;2023-04-01T10:23:21;96911.91;;;12.12;69.61
13767;BME280;47980;48.794;9.176;2023-04-01T10:26:21;96911.44;;;12.40;70.55
13767;BME280;47980;48.794;9.176;2023-04-01T10:32:30;96904.88;;;12.67;68.58
13767;BME280;47980;48.794;9.176;2023-04-01T10:38:42;96915.88;;;12.25;68.66
13767;BME280;47980;48.794;9.176;2023-04-01T10:41:46;96917.97;;;12.09;69.66
13767;BME280;47980;48.794;9.176;2023-04-01T10:44:41;96915.19;;;11.98;69.44
13767;BME280;47980;48.794;9.176;2023-04-01T10:47:48;96912.63;;;11.75;69.69
13767;BME280;47980;48.794;9.176;2023-04-01T10:50:56;96908.88;;;11.79;70.61
13767;BME280;47980;48.794;9.176;2023-04-01T10:53:38;96914.28;;;11.87;70.45
13767;BME280;47980;48.794;9.176;2023-04-01T10:56:33;96902.91;;;11.86;71.96
13767;BME280;47980;48.794;9.176;2023-04-01T10:59:36;96908.97;;;11.87;72.41
13767;BME280;47980;48.794;9.176;2023-04-01T11:02:45;96909.88;;;11.98;71.33
13767;BME280;47980;48.794;9.176;2023-04-01T11:05:58;96920.09;;;11.96;69.69
13767;BME280;47980;48.794;9.176;2023-04-01T11:09:08;96920.38;;;11.87;70.22
13767;BME280;47980;48.794;9.176;2023-04-01T11:12:09;96913.41;;;12.46;69.45
13767;BME280;47980;48.794;9.176;2023-04-01T11:15:16;96920.03;;;12.67;68.57
13767;BME280;47980;48.794;9.176;2023-04-01T11:21:34;96935.13;;;12.93;66.59
13767;BME280;47980;48.794;9.176;2023-04-01T11:24:31;96931.78;;;13.07;64.80
13767;BME280;47980;48.794;9.176;2023-04-01T11:27:19;96936.25;;;12.95;66.23
13767;BME280;47980;48.794;9.176;2023-04-01T11:30:05;96927.38;;;12.77;67.13
13767;BME280;47980;48.794;9.176;2023-04-01T11:32:54;96926.88;;;13.12;66.53
13767;BME280;47980;48.794;9.176;2023-04-01T11:35:47;96923.84;;;13.69;65.13
13767;BME280;47980;48.794;9.176;2023-04-01T11:38:47;96939.78;;;13.62;63.53
13767;BME280;47980;48.794;9.176;2023-04-01T11:41:33;96933.41;;;13.84;61.84
13767;BME280;47980;48.794;9.176;2023-04-01T11:44:17;96927.41;;;14.05;60.91
13767;BME280;47980;48.794;9.176;2023-04-01T11:47:00;96922.91;;;14.27;61.34
13767;BME280;47980;48.794;9.176;2023-04-01T11:49:46;96922.34;;;13.82;63.11
13767;BME280;47980;48.794;9.176;2023-04-01T11:52:38;96933.16;;;14.18;60.79
13767;BME280;47980;48.794;9.176;2023-04-01T11:55:25;96936.44;;;13.86;60.73
13767;BME280;47980;48.794;9.176;2023-04-01T11:58:22;96938.94;;;13.51;62.02
13767;BME280;47980;48.794;9.176;2023-04-01T12:01:08;96941.06;;;13.23;63.29
13767;BME280;47980;48.794;9.176;2023-04-01T12:03:59;96933.13;;;13.31;64.43
13767;BME280;47980;48.794;9.176;2023-04-01T12:06:42;96952.66;;;13.01;63.76
13767;BME280;47980;48.794;9.176;2023-04-01T12:09:21;96957.50;;;12.88;66.57
13767;BME280;47980;48.794;9.176;2023-04-01T12:12:07;96944.59;;;12.90;65.87
13767;BME280;47980;48.794;9.176;2023-04-01T12:14:45;96945.53;;;13.12;66.26
13767;BME280;47980;48.794;9.176;2023-04-01T12:17:30;96953.88;;;13.14;67.05
13767;BME280;47980;48.794;9.176;2023-04-01T12:20:22;96957.88;;;12.87;69.42
13767;BME280;47980;48.794;9.176;2023-04-01T12:23:06;96948.41;;;12.89;68.35
13767;BME280;47980;48.794;9.176;2023-04-01T12:25:57;96950.66;;;12.87;70.34
13767;BME280;47980;48.794;9.176;2023-04-01T12:28:44;96964.13;;;13.09;69.20
13767;BME280;47980;48.794;9.176;2023-04-01T12:31:34;96949.41;;;12.77;69.29
13767;BME280;47980;48.794;9.176;2023-04-01T12:34:39;96958.44;;;13.14;68.87
13767;BME280;47980;48.794;9.176;2023-04-01T12:37:17;96961.16;;;13.21;67.49
13767;BME280;47980;48.794;9.176;2023-04-01T12:40:14;96958.44;;;13.62;69.19
13767;BME280;47980;48.794;9.176;2023-04-01T12:42:58;96951.28;;;13.21;66.03
13767;BME280;47980;48.794;9.176;2023-04-01T12:45:32;96958.06;;;13.12;66.28
13767;BME280;47980;48.794;9.176;2023-04-01T12:48:39;96954.91;;;13.51;65.25
13767;BME280;47980;48.794;9.176;2023-04-01T12:51:29;96960.66;;;13.53;63.09
13767;BME280;47980;48.794;9.176;2023-04-01T12:57:10;96965.19;;;13.48;62.18
13767;BME280;47980;48.794;9.176;2023-04-01T13:00:03;96972.13;;;13.64;62.42
13767;BME280;47980;48.794;9.176;2023-04-01T13:02:56;96972.03;;;13.46;64.05
13767;BME280;47980;48.794;9.176;2023-04-01T13:05:49;96979.72;;;13.58;62.50
13767;BME280;47980;48.794;9.176;2023-04-01T13:08:36;96969.81;;;13.55;63.51
13767;BME280;47980;48.794;9.176;2023-04-01T13:11:20;96991.88;;;13.56;62.86
13767;BME280;47980;48.794;9.176;2023-04-01T13:14:10;96987.69;;;13.07;65.50
13767;BME280;47980;48.794;9.176;2023-04-01T13:16:48;96982.09;;;12.78;67.20
13767;BME280;47980;48.794;9.176;2023-04-01T13:19:28;96980.69;;;12.88;65.51
13767;BME280;47980;48.794;9.176;2023-04-01T13:22:08;96976.56;;;12.53;67.20
13767;BME280;47980;48.794;9.176;2023-04-01T13:24:46;96990.91;;;12.82;66.79
13767;BME280;47980;48.794;9.176;2023-04-01T13:27:26;96971.72;;;13.07;65.44
13767;BME280;47980;48.794;9.176;2023-04-01T13:30:13;96983.34;;;13.32;64.41
13767;BME280;47980;48.794;9.176;2023-04-01T13:32:56;96989.66;;;13.68;62.45
13767;BME280;47980;48.794;9.176;2023-04-01T13:35:37;96982.72;;;13.53;61.78
13767;BME280;47980;48.794;9.176;2023-04-01T13:38:42;96989.66;;;13.13;65.10
13767;BME280;47980;48.794;9.176;2023-04-01T13:41:25;96990.78;;;13.12;63.31
13767;BME280;47980;48.794;9.176;2023-04-01T13:44:07;97005.94;;;13.05;64.19
13767;BME280;47980;48.794;9.176;2023-04-01T13:47:01;97000.47;;;13.31;63.22
13767;BME280;47980;48.794;9.176;2023-04-01T13:53:05;97005.44;;;13.33;63.13
13767;BME280;47980;48.794;9.176;2023-04-01T13:55:53;97020.88;;;13.16;62.81
13767;BME280;47980;48.794;9.176;2023-04-01T13:58:38;97006.19;;;13.30;63.93
13767;BME280;47980;48.794;9.176;2023-04-01T14:01:15;97005.97;;;13.08;62.96
13767;BME280;47980;48.794;9.176;2023-04-01T14:04:29;96991.97;;;12.74;63.96
13767;BME280;47980;48.794;9.176;2023-04-01T14:07:16;96997.97;;;13.08;63.43
13767;BME280;47980;48.794;9.176;2023-04-01T14:10:07;97017.78;;;13.14;62.81
13767;BME280;47980;48.794;9.176;2023-04-01T14:12:47;97009.63;;;12.89;64.67
13767;BME280;47980;48.794;9.176;2023-04-01T14:15:42;97013.44;;;12.95;65.49
13767;BME280;47980;48.794;9.176;2023-04-01T14:18:50;97021.13;;;13.00;65.34
13767;BME280;47980;48.794;9.176;2023-04-01T14:21:33;97022.25;;;13.40;64.40
13767;BME280;47980;48.794;9.176;2023-04-01T14:24:32;97030.34;;;13.14;64.83
13767;BME280;47980;48.794;9.176;2023-04-01T14:27:24;97025.06;;;13.17;64.90
13767;BME280;47980;48.794;9.176;2023-04-01T14:30:18;97022.63;;;13.01;66.59
13767;BME280;47980;48.794;9.176;2023-04-01T14:33:01;97019.22;;;12.60;68.58
13767;BME280;47980;48.794;9.176;2023-04-01T14:35:43;97029.66;;;12.42;70.55
13767;BME280;47980;48.794;9.176;2023-04-01T14:38:33;97029.19;;;12.37;69.71
13767;BME280;47980;48.794;9.176;2023-04-01T14:41:16;97031.97;;;12.14;70.91
13767;BME280;47980;48.794;9.176;2023-04-01T14:47:23;97033.47;;;12.45;70.60
13767;BME280;47980;48.794;9.176;2023-04-01T14:50:05;97040.06;;;12.58;69.54